This is the latest recevied weather packets stored in our database for station/object EB1BWO-11. If no packets are shown the sender has not sent any weather packets the latest 10 day(s).
| Time | Temp. | Humidity | Pressure | Rain* | Wind** | Luminosity | Snow |
|---|---|---|---|---|---|---|---|
| 1777998405 | 18.33° C | 65% | 1017.3 hPa | - | - | - | - |
| 1777997504 | 18.89° C | 63% | 1017.2 hPa | - | - | - | - |
| 1777996604 | 19.44° C | 63% | 1017.2 hPa | - | - | - | - |
| 1777995704 | 19.44° C | 65% | 1017.1 hPa | - | - | - | - |
| 1777994804 | 20° C | 57% | 1017.2 hPa | - | - | - | - |
| 1777993904 | 19.44° C | 66% | 1017.2 hPa | - | - | - | - |
| 1777993004 | 19.44° C | 65% | 1017.2 hPa | - | - | - | - |
| 1777992103 | 20° C | 67% | 1017.2 hPa | - | - | - | - |
| 1777991204 | 23.33° C | 58% | 1017.1 hPa | - | - | - | - |
| 1777989403 | 25° C | 46% | 1017.1 hPa | - | - | - | - |
| 1777988503 | 30° C | 49% | 1017 hPa | - | - | - | - |
| 1777987603 | 30.56° C | 48% | 1017 hPa | - | - | - | - |
| 1777986703 | 29.44° C | 42% | 1017 hPa | - | - | - | - |
| 1777985803 | 24.44° C | 54% | 1017.2 hPa | - | - | - | - |
| 1777984902 | 22.78° C | 58% | 1017.1 hPa | - | - | - | - |
| 1777984002 | 22.78° C | 59% | 1017.1 hPa | - | - | - | - |
| 1777983102 | 22.22° C | 60% | 1017.1 hPa | - | - | - | - |
| 1777982202 | 24.44° C | 57% | 1017.1 hPa | - | - | - | - |
| 1777981302 | 20.56° C | 65% | 1017.3 hPa | - | - | - | - |
| 1777980402 | 22.22° C | 62% | 1017.4 hPa | - | - | - | - |
| 1777979502 | 21.11° C | 66% | 1017.4 hPa | - | - | - | - |
| 1777978602 | 18.89° C | 67% | 1017.5 hPa | - | - | - | - |
| 1777977701 | 18.33° C | 70% | 1017.6 hPa | - | - | - | - |
| 1777976801 | 17.22° C | 74% | 1017.7 hPa | - | - | - | - |
| 1777975901 | 15° C | 78% | 1017.9 hPa | - | - | - | - |
* Rain since midnight (hover to see other rain measurements)
** Current wind speed in m/s (hover to see current wind gust speed)